Time;durP1;ratioP1;P1;durP2;ratioP2;P2;SDS_P1;SDS_P2;PMS_P1;PMS_P2;Temp;Humidity;BMP_temperature;BMP_pressure;BME280_temperature;BME280_humidity;BME280_pressure;Samples;Min_cycle;Max_cycle;Signal;HPM_P1;HPM_P2
2024/03/05 00:00:49;;;;;;;23.53;12.80;;;;;;;;;;5034027;28;20532;-83
2024/03/05 00:03:15;;;;;;;23.20;13.93;;;;;;;;;;5034097;28;20429;-83
2024/03/05 00:05:40;;;;;;;20.10;11.83;;;;;;;;;;5033239;28;20418;-83
2024/03/05 00:08:06;;;;;;;24.43;11.70;;;;;;;;;;5033390;28;20812;-83
2024/03/05 00:10:32;;;;;;;18.27;10.93;;;;;;;;;;5033154;28;20212;-83
2024/03/05 00:12:58;;;;;;;15.20;11.97;;;;;;;;;;5033598;28;20821;-83
2024/03/05 00:15:26;;;;;;;18.80;11.83;;;;;;;;;;5033776;28;20411;-83
2024/03/05 00:17:52;;;;;;;16.87;11.63;;;;;;;;;;5033146;28;20468;-84
2024/03/05 00:20:18;;;;;;;18.50;11.47;;;;;;;;;;5033475;28;20889;-83
2024/03/05 00:22:45;;;;;;;14.93;11.23;;;;;;;;;;5033432;28;20415;-84
2024/03/05 00:25:12;;;;;;;20.60;12.10;;;;;;;;;;5015868;28;20424;-83
2024/03/05 00:27:38;;;;;;;19.87;12.17;;;;;;;;;;5033770;28;20418;-82
2024/03/05 00:30:04;;;;;;;21.03;12.33;;;;;;;;;;5033683;28;20419;-83
2024/03/05 00:32:31;;;;;;;17.87;12.23;;;;;;;;;;5032974;28;20410;-83
2024/03/05 00:34:57;;;;;;;17.77;11.33;;;;;;;;;;5030431;28;20413;-82
2024/03/05 00:37:23;;;;;;;19.07;11.80;;;;;;;;;;5032869;28;20958;-83
2024/03/05 00:39:49;;;;;;;17.23;11.07;;;;;;;;;;5033147;28;20410;-83
2024/03/05 00:42:16;;;;;;;21.37;13.13;;;;;;;;;;5015655;28;20428;-83
2024/03/05 00:44:42;;;;;;;18.60;12.23;;;;;;;;;;5033491;28;20409;-84
2024/03/05 00:47:08;;;;;;;15.50;11.33;;;;;;;;;;5016006;28;20427;-85
2024/03/05 00:49:34;;;;;;;20.30;12.23;;;;;;;;;;5033586;28;20975;-85
2024/03/05 00:51:59;;;;;;;18.67;13.77;;;;;;;;;;5034080;28;20543;-86
2024/03/05 00:54:25;;;;;;;20.47;12.10;;;;;;;;;;5034531;28;20497;-85
2024/03/05 00:56:51;;;;;;;19.63;11.50;;;;;;;;;;5017177;28;20430;-84
2024/03/05 00:59:17;;;;;;;20.97;11.20;;;;;;;;;;5031778;28;20901;-86
2024/03/05 01:01:44;;;;;;;18.90;11.17;;;;;;;;;;5034213;28;20544;-85
2024/03/05 01:04:10;;;;;;;15.50;11.40;;;;;;;;;;5016705;28;20526;-85
2024/03/05 01:06:36;;;;;;;16.33;10.30;;;;;;;;;;5034095;28;20427;-84
2024/03/05 01:09:07;;;;;;;16.97;11.70;;;;;;;;;;5034783;28;20908;-85
2024/03/05 01:11:33;;;;;;;19.80;11.57;;;;;;;;;;5034960;28;20423;-85
2024/03/05 01:13:59;;;;;;;23.53;12.10;;;;;;;;;;5034293;28;20417;-84
2024/03/05 01:16:26;;;;;;;18.30;11.53;;;;;;;;;;5033682;28;20458;-83
2024/03/05 01:18:52;;;;;;;20.20;13.40;;;;;;;;;;5034507;28;20408;-85
2024/03/05 01:21:17;;;;;;;17.40;12.07;;;;;;;;;;5034102;28;20517;-86
2024/03/05 01:23:43;;;;;;;16.80;11.00;;;;;;;;;;5036456;28;20407;-85
2024/03/05 01:26:09;;;;;;;17.70;10.87;;;;;;;;;;5021212;28;20426;-87
2024/03/05 01:28:35;;;;;;;23.23;12.70;;;;;;;;;;5039131;28;20822;-86
2024/03/05 01:31:02;;;;;;;21.83;12.17;;;;;;;;;;5038655;28;20439;-86
2024/03/05 01:33:28;;;;;;;17.00;10.40;;;;;;;;;;5038240;28;20796;-84
2024/03/05 01:35:54;;;;;;;16.13;11.50;;;;;;;;;;5036871;28;20409;-84
2024/03/05 01:38:21;;;;;;;14.67;11.10;;;;;;;;;;5037156;28;20925;-83
2024/03/05 01:40:46;;;;;;;19.50;10.50;;;;;;;;;;5037234;28;20474;-85
2024/03/05 01:43:12;;;;;;;19.50;13.10;;;;;;;;;;5037011;28;20406;-84
2024/03/05 01:45:38;;;;;;;18.17;11.03;;;;;;;;;;5037329;28;20414;-84
2024/03/05 01:48:05;;;;;;;20.90;13.90;;;;;;;;;;5037511;28;20413;-85
2024/03/05 01:50:35;;;;;;;25.10;14.13;;;;;;;;;;5018805;28;20427;-83
2024/03/05 01:53:02;;;;;;;18.17;10.83;;;;;;;;;;5033522;28;20479;-82
2024/03/05 01:55:29;;;;;;;21.00;11.40;;;;;;;;;;5035609;28;20453;-82
2024/03/05 01:57:57;;;;;;;16.40;12.00;;;;;;;;;;5035422;28;20941;-82
2024/03/05 02:00:23;;;;;;;22.73;13.30;;;;;;;;;;5035682;28;20474;-83
2024/03/05 02:02:49;;;;;;;20.07;12.13;;;;;;;;;;5035567;28;20916;-83
2024/03/05 02:05:15;;;;;;;19.53;11.13;;;;;;;;;;5034589;28;20433;-83
2024/03/05 02:07:41;;;;;;;18.27;11.03;;;;;;;;;;5018068;28;20450;-83
2024/03/05 02:10:07;;;;;;;16.73;11.10;;;;;;;;;;5035671;28;20429;-83
2024/03/05 02:12:37;;;;;;;18.33;11.67;;;;;;;;;;5035678;28;20419;-83
2024/03/05 02:15:04;;;;;;;20.70;11.90;;;;;;;;;;5035447;28;20417;-83
2024/03/05 02:17:31;;;;;;;25.33;12.27;;;;;;;;;;5035355;28;20452;-84
2024/03/05 02:19:57;;;;;;;18.63;12.27;;;;;;;;;;5035136;28;20489;-83
2024/03/05 02:22:23;;;;;;;18.20;13.37;;;;;;;;;;5035103;28;20832;-83
2024/03/05 02:24:48;;;;;;;16.10;11.50;;;;;;;;;;5035232;28;20496;-83
2024/03/05 02:27:15;;;;;;;20.50;12.67;;;;;;;;;;5035046;28;20449;-83
2024/03/05 02:29:41;;;;;;;17.00;12.03;;;;;;;;;;5035109;28;20413;-82
2024/03/05 02:32:08;;;;;;;22.83;13.90;;;;;;;;;;5034981;28;20507;-83
2024/03/05 02:34:34;;;;;;;19.90;12.90;;;;;;;;;;5034915;28;20468;-83
2024/03/05 02:37:00;;;;;;;18.60;13.33;;;;;;;;;;5034560;28;20430;-83
2024/03/05 02:39:30;;;;;;;21.93;13.80;;;;;;;;;;5034900;28;20417;-83
2024/03/05 02:41:56;;;;;;;17.70;12.73;;;;;;;;;;5034697;28;20470;-81
2024/03/05 02:44:22;;;;;;;20.20;13.17;;;;;;;;;;5016936;28;20480;-82
2024/03/05 02:46:50;;;;;;;18.50;13.60;;;;;;;;;;5016897;28;20803;-82
2024/03/05 02:49:16;;;;;;;19.47;12.90;;;;;;;;;;5034654;28;20415;-81
2024/03/05 02:51:42;;;;;;;18.40;12.47;;;;;;;;;;5016492;28;20431;-81
2024/03/05 02:54:08;;;;;;;18.40;12.70;;;;;;;;;;5016858;28;20457;-82
2024/03/05 02:56:34;;;;;;;22.20;14.03;;;;;;;;;;5034761;28;20414;-83
2024/03/05 02:59:00;;;;;;;21.93;14.33;;;;;;;;;;5034870;28;20409;-82
2024/03/05 03:01:26;;;;;;;17.40;12.10;;;;;;;;;;5034361;28;20465;-83
2024/03/05 03:03:52;;;;;;;19.23;12.70;;;;;;;;;;5016653;28;20419;-82
2024/03/05 03:06:19;;;;;;;19.43;12.50;;;;;;;;;;5016391;28;20532;-83
2024/03/05 03:08:45;;;;;;;21.60;13.77;;;;;;;;;;5016694;28;20470;-82
2024/03/05 03:11:17;;;;;;;20.17;13.70;;;;;;;;;;5034325;28;20417;-82
2024/03/05 03:13:44;;;;;;;22.90;15.20;;;;;;;;;;5032363;28;20399;-83
2024/03/05 03:16:10;;;;;;;15.17;10.43;;;;;;;;;;5033976;28;20464;-83
2024/03/05 03:18:36;;;;;;;18.90;12.13;;;;;;;;;;5033286;28;20497;-82
2024/03/05 03:21:03;;;;;;;16.30;10.47;;;;;;;;;;5033205;28;20529;-83
2024/03/05 03:23:29;;;;;;;16.60;11.93;;;;;;;;;;5033139;28;20766;-84
2024/03/05 03:25:58;;;;;;;17.70;13.27;;;;;;;;;;5033208;28;20422;-83
2024/03/05 03:28:24;;;;;;;19.53;13.23;;;;;;;;;;5015804;28;20467;-83
2024/03/05 03:30:54;;;;;;;21.80;12.63;;;;;;;;;;5015777;28;20421;-83
2024/03/05 03:33:20;;;;;;;23.70;13.50;;;;;;;;;;5033696;28;20450;-83
2024/03/05 03:35:47;;;;;;;16.03;11.37;;;;;;;;;;5033360;28;20810;-83
2024/03/05 03:38:13;;;;;;;17.87;12.37;;;;;;;;;;5033694;28;20418;-83
2024/03/05 03:40:41;;;;;;;16.63;11.30;;;;;;;;;;5033417;28;20480;-82
2024/03/05 03:43:10;;;;;;;18.73;12.53;;;;;;;;;;5033418;28;20415;-82
2024/03/05 03:45:36;;;;;;;20.10;12.67;;;;;;;;;;5032451;28;20433;-84
2024/03/05 03:48:02;;;;;;;19.20;11.67;;;;;;;;;;5033158;28;20414;-83
2024/03/05 03:50:28;;;;;;;18.50;11.00;;;;;;;;;;5033130;28;20429;-82
2024/03/05 03:52:54;;;;;;;17.77;11.70;;;;;;;;;;5033254;28;20423;-83
2024/03/05 03:55:20;;;;;;;18.30;12.10;;;;;;;;;;5033666;28;20476;-83
2024/03/05 03:57:47;;;;;;;18.53;11.90;;;;;;;;;;5033598;28;20544;-83
2024/03/05 04:00:16;;;;;;;20.33;12.03;;;;;;;;;;5033248;28;20453;-84
2024/03/05 04:02:42;;;;;;;22.70;12.97;;;;;;;;;;5033325;28;20481;-83
2024/03/05 04:05:09;;;;;;;18.33;10.90;;;;;;;;;;5033271;28;20420;-82
2024/03/05 04:07:36;;;;;;;18.20;11.40;;;;;;;;;;5016076;28;20418;-83
2024/03/05 04:10:01;;;;;;;16.80;12.90;;;;;;;;;;5033572;28;20424;-82
2024/03/05 04:12:28;;;;;;;15.17;9.97;;;;;;;;;;5033404;28;20425;-82
2024/03/05 04:14:54;;;;;;;25.87;11.90;;;;;;;;;;5033807;28;20779;-83
2024/03/05 04:17:20;;;;;;;20.70;11.77;;;;;;;;;;4999059;28;1003589;-86
2024/03/05 04:19:47;;;;;;;19.83;12.50;;;;;;;;;;5033736;28;20188;-83
2024/03/05 04:22:17;;;;;;;17.47;11.90;;;;;;;;;;5034576;28;20410;-82
2024/03/05 04:24:52;;;;;;;19.50;12.30;;;;;;;;;;5034704;28;20403;-84
2024/03/05 04:27:18;;;;;;;17.77;9.63;;;;;;;;;;5035034;28;20410;-84
2024/03/05 04:29:47;;;;;;;24.30;12.70;;;;;;;;;;5036144;28;20863;-83
2024/03/05 04:32:13;;;;;;;17.17;11.40;;;;;;;;;;5040321;28;20413;-83
2024/03/05 04:34:42;;;;;;;23.30;12.50;;;;;;;;;;5034734;28;20544;-83
2024/03/05 04:37:11;;;;;;;22.63;14.07;;;;;;;;;;5035319;28;20445;-84
2024/03/05 04:39:38;;;;;;;17.77;12.50;;;;;;;;;;5017692;28;20808;-85
2024/03/05 04:42:04;;;;;;;17.43;11.80;;;;;;;;;;5035689;28;21188;-84
2024/03/05 04:44:31;;;;;;;21.13;11.20;;;;;;;;;;5035910;28;20409;-86
2024/03/05 04:46:57;;;;;;;22.47;12.47;;;;;;;;;;5035553;28;20405;-84
2024/03/05 04:49:23;;;;;;;21.27;12.00;;;;;;;;;;5035908;28;20455;-87
2024/03/05 04:51:49;;;;;;;18.53;12.13;;;;;;;;;;5035097;28;20417;-84
2024/03/05 04:54:15;;;;;;;17.80;11.83;;;;;;;;;;5035351;28;20409;-84
2024/03/05 04:56:41;;;;;;;17.20;12.70;;;;;;;;;;5017975;28;20428;-84
2024/03/05 04:59:07;;;;;;;21.97;13.37;;;;;;;;;;5037996;28;20418;-87
2024/03/05 05:01:33;;;;;;;20.10;12.83;;;;;;;;;;5039766;28;20468;-84
2024/03/05 05:03:59;;;;;;;23.77;13.50;;;;;;;;;;5038898;28;20493;-83
2024/03/05 05:06:25;;;;;;;18.40;12.70;;;;;;;;;;5038383;28;20408;-84
2024/03/05 05:08:51;;;;;;;20.00;12.57;;;;;;;;;;5038795;28;20413;-83
2024/03/05 05:11:17;;;;;;;22.00;14.50;;;;;;;;;;5039297;28;20421;-84
2024/03/05 05:13:43;;;;;;;18.90;13.30;;;;;;;;;;5039423;28;20405;-83
2024/03/05 05:16:11;;;;;;;20.27;12.40;;;;;;;;;;5038727;28;20470;-85
2024/03/05 05:18:37;;;;;;;20.13;13.30;;;;;;;;;;5039386;28;20419;-84
2024/03/05 05:21:04;;;;;;;18.73;12.40;;;;;;;;;;5021035;28;21010;-84
2024/03/05 05:23:29;;;;;;;20.33;12.50;;;;;;;;;;5039859;28;20455;-84
2024/03/05 05:25:55;;;;;;;19.77;12.47;;;;;;;;;;5040177;28;20417;-84
2024/03/05 05:28:22;;;;;;;22.50;12.73;;;;;;;;;;5022994;28;20421;-85
2024/03/05 05:30:48;;;;;;;21.17;13.53;;;;;;;;;;5038672;28;20497;-82
2024/03/05 05:33:14;;;;;;;21.50;13.60;;;;;;;;;;5019389;28;20989;-82
2024/03/05 05:35:40;;;;;;;21.33;12.53;;;;;;;;;;5036333;28;20418;-82
2024/03/05 05:38:10;;;;;;;20.73;12.10;;;;;;;;;;5036815;28;20919;-82
2024/03/05 05:40:36;;;;;;;18.50;13.70;;;;;;;;;;5019690;28;21043;-83
2024/03/05 05:43:02;;;;;;;17.23;12.50;;;;;;;;;;5037238;28;20452;-85
2024/03/05 05:45:28;;;;;;;17.17;12.10;;;;;;;;;;5036716;28;20422;-82
2024/03/05 05:47:56;;;;;;;18.63;12.40;;;;;;;;;;5036748;28;20907;-81
2024/03/05 05:50:22;;;;;;;19.30;11.67;;;;;;;;;;5036895;28;20478;-82
2024/03/05 05:52:49;;;;;;;21.67;12.63;;;;;;;;;;5037281;28;20406;-81
2024/03/05 05:55:15;;;;;;;20.23;12.50;;;;;;;;;;5019458;28;20426;-81
2024/03/05 05:57:46;;;;;;;19.27;13.40;;;;;;;;;;5036974;28;20421;-82
2024/03/05 06:00:22;;;;;;;21.83;14.60;;;;;;;;;;5037814;28;20462;-82
2024/03/05 06:02:48;;;;;;;18.20;11.37;;;;;;;;;;5037379;28;20406;-82
2024/03/05 06:05:14;;;;;;;19.37;12.90;;;;;;;;;;5036712;28;20412;-83
2024/03/05 06:07:40;;;;;;;17.67;11.20;;;;;;;;;;5037866;28;20422;-84
2024/03/05 06:10:06;;;;;;;16.30;11.83;;;;;;;;;;5037801;28;20764;-83
2024/03/05 06:12:33;;;;;;;22.30;12.50;;;;;;;;;;5037847;28;20916;-82
2024/03/05 06:14:59;;;;;;;17.60;12.77;;;;;;;;;;5037737;28;20803;-83
2024/03/05 06:17:25;;;;;;;20.87;12.97;;;;;;;;;;5036923;28;20489;-82
2024/03/05 06:19:51;;;;;;;18.73;12.70;;;;;;;;;;5037136;28;20497;-84
2024/03/05 06:22:16;;;;;;;19.63;14.30;;;;;;;;;;5037232;28;20450;-82
2024/03/05 06:24:42;;;;;;;21.60;13.50;;;;;;;;;;5035691;28;20405;-82
2024/03/05 06:27:08;;;;;;;20.67;13.63;;;;;;;;;;5036662;28;20413;-82
2024/03/05 06:29:36;;;;;;;20.27;14.40;;;;;;;;;;5035798;28;20403;-82
2024/03/05 06:32:02;;;;;;;17.60;11.53;;;;;;;;;;5035614;28;20595;-80
2024/03/05 06:34:28;;;;;;;18.73;14.17;;;;;;;;;;5017634;28;20445;-82
2024/03/05 06:36:56;;;;;;;19.87;12.87;;;;;;;;;;5035896;28;20415;-83
2024/03/05 06:39:29;;;;;;;20.87;13.13;;;;;;;;;;5035447;28;20423;-82
2024/03/05 06:41:56;;;;;;;17.77;11.10;;;;;;;;;;5035301;28;20469;-81
2024/03/05 06:44:25;;;;;;;16.53;12.50;;;;;;;;;;5035265;28;20411;-81
2024/03/05 06:46:53;;;;;;;22.20;12.70;;;;;;;;;;5035164;28;20827;-81
2024/03/05 06:49:26;;;;;;;17.23;12.43;;;;;;;;;;5034452;28;20405;-81
2024/03/05 06:51:55;;;;;;;22.70;13.07;;;;;;;;;;5036078;28;20425;-81
2024/03/05 06:57:08;;;;;;;15.47;13.23;;;;;;;;;;5035915;28;20498;-81
2024/03/05 06:59:34;;;;;;;19.40;13.40;;;;;;;;;;5035085;28;20418;-82
2024/03/05 07:02:00;;;;;;;22.13;13.27;;;;;;;;;;5034816;28;20511;-81
2024/03/05 07:04:27;;;;;;;22.93;13.63;;;;;;;;;;5034439;28;20406;-81
2024/03/05 07:06:54;;;;;;;18.00;13.10;;;;;;;;;;5034750;28;20448;-80
2024/03/05 07:09:20;;;;;;;18.93;11.50;;;;;;;;;;5034677;28;21029;-81
2024/03/05 07:11:47;;;;;;;21.40;13.67;;;;;;;;;;5034537;28;20445;-81
2024/03/05 07:14:14;;;;;;;23.93;13.80;;;;;;;;;;5034729;28;20415;-80
2024/03/05 07:16:40;;;;;;;23.53;13.17;;;;;;;;;;5034242;28;21036;-79
2024/03/05 07:19:07;;;;;;;15.00;11.70;;;;;;;;;;5034419;28;20415;-80
2024/03/05 07:21:33;;;;;;;19.20;13.00;;;;;;;;;;5033398;28;20468;-81
2024/03/05 07:23:59;;;;;;;15.43;12.60;;;;;;;;;;5034309;28;20406;-81
2024/03/05 07:26:25;;;;;;;19.30;14.80;;;;;;;;;;5034459;28;20464;-81
2024/03/05 07:28:52;;;;;;;16.13;12.90;;;;;;;;;;5034050;28;20436;-81
2024/03/05 07:31:18;;;;;;;17.57;12.63;;;;;;;;;;5034312;28;20414;-81
2024/03/05 07:33:44;;;;;;;20.10;13.17;;;;;;;;;;5034006;28;20398;-80
2024/03/05 07:36:10;;;;;;;15.80;13.03;;;;;;;;;;5033584;28;20424;-81
2024/03/05 07:38:36;;;;;;;16.83;11.17;;;;;;;;;;5034123;28;20407;-81
2024/03/05 07:41:02;;;;;;;16.30;10.80;;;;;;;;;;5016271;28;20483;-80
2024/03/05 07:43:28;;;;;;;16.30;11.23;;;;;;;;;;5033960;28;20890;-79
2024/03/05 07:45:54;;;;;;;15.27;10.90;;;;;;;;;;5033991;28;20426;-81
2024/03/05 07:48:20;;;;;;;22.13;11.70;;;;;;;;;;5034065;28;20422;-81
2024/03/05 07:50:46;;;;;;;11.00;9.73;;;;;;;;;;5033920;28;20418;-81
2024/03/05 07:53:12;;;;;;;11.10;9.70;;;;;;;;;;5033476;28;20812;-81
2024/03/05 07:55:39;;;;;;;11.30;9.40;;;;;;;;;;5033679;28;20413;-79
2024/03/05 07:58:08;;;;;;;15.57;10.63;;;;;;;;;;5033809;28;20407;-81
2024/03/05 08:00:35;;;;;;;15.53;10.20;;;;;;;;;;5033703;28;20475;-82
2024/03/05 08:03:03;;;;;;;12.57;8.07;;;;;;;;;;5016554;28;20463;-82
2024/03/05 08:05:29;;;;;;;11.80;8.90;;;;;;;;;;5034056;28;20423;-83
2024/03/05 08:08:01;;;;;;;15.53;8.13;;;;;;;;;;5033934;28;20413;-82
2024/03/05 08:10:27;;;;;;;13.23;7.93;;;;;;;;;;5033808;28;20412;-83
2024/03/05 08:12:55;;;;;;;8.30;6.20;;;;;;;;;;5016708;28;20908;-82
2024/03/05 08:15:21;;;;;;;10.43;6.60;;;;;;;;;;5033879;28;20414;-82
2024/03/05 08:17:48;;;;;;;11.90;7.07;;;;;;;;;;5033841;28;20836;-82
2024/03/05 08:20:18;;;;;;;14.70;7.77;;;;;;;;;;5033256;28;20975;-83
2024/03/05 08:22:47;;;;;;;9.57;6.30;;;;;;;;;;5033443;28;20432;-83
2024/03/05 08:25:15;;;;;;;10.13;6.83;;;;;;;;;;5033206;28;20810;-82
2024/03/05 08:27:44;;;;;;;8.13;4.93;;;;;;;;;;5033034;28;20842;-82
2024/03/05 08:30:17;;;;;;;9.03;6.00;;;;;;;;;;5033195;28;20421;-83
2024/03/05 08:32:43;;;;;;;9.80;6.40;;;;;;;;;;5032918;28;20443;-81
2024/03/05 08:35:09;;;;;;;8.27;6.07;;;;;;;;;;5032476;28;20903;-80
2024/03/05 08:37:35;;;;;;;8.03;5.27;;;;;;;;;;5033018;28;20413;-80
2024/03/05 08:40:04;;;;;;;8.70;5.20;;;;;;;;;;5032905;28;20410;-80
2024/03/05 08:42:30;;;;;;;12.27;5.80;;;;;;;;;;5032963;28;20406;-81
2024/03/05 08:44:56;;;;;;;8.67;5.80;;;;;;;;;;5032866;28;20457;-80
2024/03/05 08:47:22;;;;;;;13.17;6.07;;;;;;;;;;5032841;28;20172;-80
2024/03/05 08:49:50;;;;;;;11.10;6.30;;;;;;;;;;5032589;28;20404;-81
2024/03/05 08:52:17;;;;;;;8.67;5.63;;;;;;;;;;5032927;28;20165;-80
2024/03/05 08:54:43;;;;;;;9.43;5.80;;;;;;;;;;5032826;28;20405;-82
2024/03/05 08:57:09;;;;;;;8.83;5.83;;;;;;;;;;5032717;28;20407;-81
2024/03/05 08:59:36;;;;;;;9.00;5.00;;;;;;;;;;5032850;28;20408;-80
2024/03/05 09:02:04;;;;;;;9.60;5.57;;;;;;;;;;5032690;28;20480;-82
2024/03/05 09:04:30;;;;;;;6.20;4.50;;;;;;;;;;5014991;28;20569;-81
2024/03/05 09:06:56;;;;;;;11.70;5.57;;;;;;;;;;5032781;28;20846;-82
2024/03/05 09:09:22;;;;;;;9.67;5.53;;;;;;;;;;5032700;28;20259;-81
2024/03/05 09:11:48;;;;;;;6.70;4.83;;;;;;;;;;5032610;28;20177;-81
2024/03/05 09:14:14;;;;;;;6.17;5.20;;;;;;;;;;5032629;28;20284;-82
2024/03/05 09:16:40;;;;;;;14.40;6.23;;;;;;;;;;5014596;28;20469;-80
2024/03/05 09:19:06;;;;;;;6.80;4.97;;;;;;;;;;5032367;28;20424;-81
2024/03/05 09:21:32;;;;;;;9.43;5.70;;;;;;;;;;5014422;28;20486;-81
2024/03/05 09:23:59;;;;;;;7.50;5.20;;;;;;;;;;5014536;28;20828;-81
2024/03/05 09:26:29;;;;;;;9.63;5.30;;;;;;;;;;5032325;28;20404;-82
2024/03/05 09:28:55;;;;;;;7.20;5.53;;;;;;;;;;5032543;28;20421;-82
2024/03/05 09:31:21;;;;;;;7.30;5.83;;;;;;;;;;5014758;28;20470;-82
2024/03/05 09:33:47;;;;;;;6.87;5.53;;;;;;;;;;5032226;28;20404;-81
2024/03/05 09:36:13;;;;;;;9.93;6.20;;;;;;;;;;5032364;28;20402;-82
2024/03/05 09:38:39;;;;;;;16.47;6.57;;;;;;;;;;5032397;28;20178;-83
2024/03/05 09:41:05;;;;;;;11.33;7.40;;;;;;;;;;5032369;28;20492;-83
2024/03/05 09:43:33;;;;;;;12.37;6.37;;;;;;;;;;5032599;28;20268;-82
2024/03/05 09:46:04;;;;;;;8.07;7.10;;;;;;;;;;5035773;28;20408;-83
2024/03/05 09:48:31;;;;;;;7.77;5.40;;;;;;;;;;5035787;28;20944;-83
2024/03/05 09:50:57;;;;;;;10.87;6.47;;;;;;;;;;5035771;28;20948;-83
2024/03/05 09:53:23;;;;;;;6.47;5.10;;;;;;;;;;5035979;28;20500;-84
2024/03/05 09:55:52;;;;;;;13.93;7.00;;;;;;;;;;5035997;28;20906;-84
2024/03/05 09:58:22;;;;;;;9.20;6.03;;;;;;;;;;5035926;28;20496;-84
2024/03/05 10:00:48;;;;;;;6.80;6.10;;;;;;;;;;5035541;28;21076;-81
2024/03/05 10:03:14;;;;;;;10.50;5.33;;;;;;;;;;5035374;28;20503;-81
2024/03/05 10:05:40;;;;;;;10.37;5.57;;;;;;;;;;5035440;28;20216;-82
2024/03/05 10:08:06;;;;;;;8.50;5.00;;;;;;;;;;5035692;28;20200;-81
2024/03/05 10:10:32;;;;;;;5.80;4.77;;;;;;;;;;5035529;28;20956;-82
2024/03/05 10:13:01;;;;;;;8.03;4.37;;;;;;;;;;5035563;28;20508;-81
2024/03/05 10:15:27;;;;;;;9.20;4.80;;;;;;;;;;5035523;28;20493;-81
2024/03/05 10:17:54;;;;;;;13.73;5.87;;;;;;;;;;5035355;28;20455;-83
2024/03/05 10:20:27;;;;;;;6.93;5.77;;;;;;;;;;5034988;28;20469;-82
2024/03/05 10:22:53;;;;;;;5.83;4.73;;;;;;;;;;5035349;28;20421;-81
2024/03/05 10:25:19;;;;;;;7.43;3.83;;;;;;;;;;5017587;28;20989;-84
2024/03/05 10:27:46;;;;;;;10.13;5.23;;;;;;;;;;5035254;28;20791;-83
2024/03/05 10:30:22;;;;;;;6.17;4.43;;;;;;;;;;5035247;28;20555;-82
2024/03/05 10:33:00;;;;;;;8.17;5.50;;;;;;;;;;5035201;28;20515;-83
2024/03/05 10:35:27;;;;;;;6.03;4.63;;;;;;;;;;5034829;28;20416;-82
2024/03/05 10:38:03;;;;;;;7.00;4.53;;;;;;;;;;5035121;28;20914;-82
2024/03/05 10:40:32;;;;;;;8.67;5.47;;;;;;;;;;5034914;28;20460;-81
2024/03/05 10:43:09;;;;;;;9.93;4.97;;;;;;;;;;5035045;28;20427;-83
2024/03/05 10:45:39;;;;;;;10.53;4.40;;;;;;;;;;5035075;28;20453;-83
2024/03/05 10:48:07;;;;;;;5.40;4.00;;;;;;;;;;5034971;28;20446;-83
2024/03/05 10:50:36;;;;;;;8.00;4.70;;;;;;;;;;5034570;28;20487;-83
2024/03/05 10:53:04;;;;;;;8.90;5.17;;;;;;;;;;5034841;28;20506;-82
2024/03/05 10:55:33;;;;;;;7.30;4.57;;;;;;;;;;5033999;28;20437;-84
2024/03/05 11:00:38;;;;;;;8.67;4.83;;;;;;;;;;5034681;28;20481;-82
2024/03/05 11:03:08;;;;;;;8.03;5.07;;;;;;;;;;5034669;28;20423;-82
2024/03/05 11:05:40;;;;;;;6.60;4.63;;;;;;;;;;5034156;28;20428;-82
2024/03/05 11:08:12;;;;;;;7.80;3.97;;;;;;;;;;5034639;28;20409;-82
2024/03/05 11:10:39;;;;;;;4.73;4.10;;;;;;;;;;5034506;28;20405;-82
2024/03/05 11:13:05;;;;;;;6.47;4.30;;;;;;;;;;5034471;28;20512;-81
2024/03/05 11:15:32;;;;;;;5.77;4.37;;;;;;;;;;5034284;28;20904;-81
2024/03/05 11:17:57;;;;;;;5.87;5.20;;;;;;;;;;5034504;28;20431;-81
2024/03/05 11:20:42;;;;;;;5.40;4.10;;;;;;;;;;5033888;28;20535;-82
2024/03/05 11:23:11;;;;;;;10.23;4.10;;;;;;;;;;5034202;28;20184;-82
2024/03/05 11:25:42;;;;;;;6.13;4.40;;;;;;;;;;5016398;28;20492;-82
2024/03/05 11:28:11;;;;;;;7.03;4.20;;;;;;;;;;5034218;28;20417;-81
2024/03/05 11:30:40;;;;;;;6.90;4.67;;;;;;;;;;5034066;28;20413;-82
2024/03/05 11:33:10;;;;;;;5.30;3.50;;;;;;;;;;5034087;28;20436;-81
2024/03/05 11:35:43;;;;;;;5.43;3.70;;;;;;;;;;5033592;28;20774;-81
2024/03/05 11:38:12;;;;;;;5.60;4.23;;;;;;;;;;5034030;28;20433;-81
2024/03/05 11:40:38;;;;;;;5.57;4.00;;;;;;;;;;5033976;28;20513;-82
2024/03/05 11:43:07;;;;;;;4.67;3.50;;;;;;;;;;5033779;28;20908;-81
2024/03/05 11:45:43;;;;;;;6.50;4.63;;;;;;;;;;5033825;28;20490;-82
2024/03/05 11:48:10;;;;;;;5.07;4.47;;;;;;;;;;5033814;28;20426;-82
2024/03/05 11:50:36;;;;;;;7.87;4.00;;;;;;;;;;5033451;28;20495;-82
2024/03/05 11:53:02;;;;;;;7.07;3.70;;;;;;;;;;5033722;28;20449;-82
2024/03/05 11:55:29;;;;;;;5.17;4.13;;;;;;;;;;5033671;28;20197;-82
2024/03/05 11:57:56;;;;;;;8.50;4.80;;;;;;;;;;5033643;28;20182;-82
2024/03/05 12:00:22;;;;;;;5.83;4.13;;;;;;;;;;5015711;28;20453;-82
2024/03/05 12:02:52;;;;;;;4.70;3.13;;;;;;;;;;5033418;28;20955;-83
2024/03/05 12:05:18;;;;;;;5.67;3.80;;;;;;;;;;5033054;28;20548;-83
2024/03/05 12:07:56;;;;;;;10.23;3.73;;;;;;;;;;5033168;28;20501;-81
2024/03/05 12:10:26;;;;;;;9.83;3.43;;;;;;;;;;5015804;28;20417;-82
2024/03/05 12:12:51;;;;;;;4.40;3.47;;;;;;;;;;5033382;28;20426;-81
2024/03/05 12:15:20;;;;;;;5.73;4.13;;;;;;;;;;5033341;28;20420;-82
2024/03/05 12:17:46;;;;;;;10.77;4.40;;;;;;;;;;5033094;28;20466;-83
2024/03/05 12:20:13;;;;;;;8.37;3.97;;;;;;;;;;5032882;28;20473;-83
2024/03/05 12:22:41;;;;;;;6.93;4.07;;;;;;;;;;5033211;28;20428;-82
2024/03/05 12:25:10;;;;;;;4.67;3.30;;;;;;;;;;5033100;28;20418;-83
2024/03/05 12:27:37;;;;;;;5.90;3.20;;;;;;;;;;5033287;28;20416;-82
2024/03/05 12:30:04;;;;;;;5.10;3.93;;;;;;;;;;5033203;28;20435;-84
2024/03/05 12:32:30;;;;;;;7.93;4.10;;;;;;;;;;5033128;28;20475;-83
2024/03/05 12:34:59;;;;;;;5.67;4.73;;;;;;;;;;5032807;28;20406;-82
2024/03/05 12:37:26;;;;;;;7.00;4.20;;;;;;;;;;5033071;28;20179;-82
2024/03/05 12:39:59;;;;;;;8.17;4.33;;;;;;;;;;5033067;28;20491;-82
2024/03/05 12:42:25;;;;;;;5.87;3.03;;;;;;;;;;5033129;28;20480;-82
2024/03/05 12:45:02;;;;;;;4.93;4.43;;;;;;;;;;5032828;28;20417;-81
2024/03/05 12:47:28;;;;;;;5.03;4.00;;;;;;;;;;5033055;28;20168;-81
2024/03/05 12:49:55;;;;;;;6.27;3.97;;;;;;;;;;5015214;28;20426;-84
2024/03/05 12:52:22;;;;;;;6.43;3.67;;;;;;;;;;5032513;28;20410;-85
2024/03/05 12:55:04;;;;;;;6.10;4.10;;;;;;;;;;5015519;28;20434;-85
2024/03/05 12:57:31;;;;;;;6.63;4.03;;;;;;;;;;5032774;28;20434;-87
2024/03/05 13:00:00;;;;;;;6.33;4.33;;;;;;;;;;5032775;28;20478;-83
2024/03/05 13:02:26;;;;;;;6.53;4.97;;;;;;;;;;5032534;28;20422;-85
2024/03/05 13:04:52;;;;;;;6.53;3.80;;;;;;;;;;5032493;28;20405;-86
2024/03/05 13:07:18;;;;;;;5.13;3.23;;;;;;;;;;5031365;28;20434;-86
2024/03/05 13:09:44;;;;;;;4.70;3.60;;;;;;;;;;5031429;28;20422;-86
2024/03/05 13:12:10;;;;;;;5.80;3.70;;;;;;;;;;5032799;28;20418;-84
2024/03/05 13:14:36;;;;;;;6.57;4.00;;;;;;;;;;5032749;28;20419;-87
2024/03/05 13:17:02;;;;;;;4.13;3.30;;;;;;;;;;5031266;28;20556;-85
2024/03/05 13:19:28;;;;;;;9.67;4.10;;;;;;;;;;5033565;28;20418;-84
2024/03/05 13:21:54;;;;;;;4.40;3.20;;;;;;;;;;5036443;28;20528;-84
2024/03/05 13:24:21;;;;;;;6.40;3.90;;;;;;;;;;5036706;28;20814;-86
2024/03/05 13:26:47;;;;;;;4.40;3.47;;;;;;;;;;5036696;28;20472;-84
2024/03/05 13:29:13;;;;;;;4.33;3.23;;;;;;;;;;5036421;28;20481;-85
2024/03/05 13:31:40;;;;;;;6.83;3.73;;;;;;;;;;5036283;28;20456;-84
2024/03/05 13:34:09;;;;;;;5.90;3.70;;;;;;;;;;5034828;28;20425;-83
2024/03/05 13:36:36;;;;;;;7.07;4.23;;;;;;;;;;5035773;28;20471;-83
2024/03/05 13:39:08;;;;;;;5.17;3.40;;;;;;;;;;5035745;28;20916;-85
2024/03/05 13:41:34;;;;;;;5.67;4.13;;;;;;;;;;5035938;28;20515;-85
2024/03/05 13:43:59;;;;;;;4.63;3.43;;;;;;;;;;5035613;28;20437;-84
2024/03/05 13:46:28;;;;;;;6.57;4.17;;;;;;;;;;5035722;28;20891;-85
2024/03/05 13:48:58;;;;;;;5.67;3.47;;;;;;;;;;5035288;28;20403;-86
2024/03/05 13:51:26;;;;;;;7.60;4.43;;;;;;;;;;5033315;28;20411;-83
2024/03/05 13:53:52;;;;;;;5.27;3.33;;;;;;;;;;5036028;28;20414;-83
2024/03/05 13:56:18;;;;;;;6.37;3.73;;;;;;;;;;5035735;28;20409;-83
2024/03/05 13:58:45;;;;;;;6.20;3.70;;;;;;;;;;5035804;28;20504;-84
2024/03/05 14:01:11;;;;;;;7.00;2.90;;;;;;;;;;5034469;28;20948;-84
2024/03/05 14:03:37;;;;;;;5.13;3.67;;;;;;;;;;5035535;28;20402;-84
2024/03/05 14:06:07;;;;;;;7.67;4.33;;;;;;;;;;5034540;28;20423;-84
2024/03/05 14:08:33;;;;;;;6.90;4.23;;;;;;;;;;5035685;28;20495;-84
2024/03/05 14:11:04;;;;;;;6.83;3.30;;;;;;;;;;5035634;28;20436;-83
2024/03/05 14:13:30;;;;;;;5.33;2.83;;;;;;;;;;5035607;28;20923;-83
2024/03/05 14:15:56;;;;;;;8.33;4.00;;;;;;;;;;5034145;28;20472;-84
2024/03/05 14:18:22;;;;;;;7.80;3.97;;;;;;;;;;5035132;28;20748;-84
2024/03/05 14:20:49;;;;;;;4.00;3.20;;;;;;;;;;5036331;28;20495;-87
2024/03/05 14:23:15;;;;;;;4.53;3.67;;;;;;;;;;5037215;28;20416;-87
2024/03/05 14:25:43;;;;;;;7.50;3.43;;;;;;;;;;5037190;28;20420;-88
2024/03/05 14:28:11;;;;;;;5.80;3.90;;;;;;;;;;5036651;28;20447;-87
2024/03/05 14:30:39;;;;;;;8.13;3.90;;;;;;;;;;5035381;28;20495;-88
2024/03/05 14:33:05;;;;;;;8.70;3.40;;;;;;;;;;5034944;28;20428;-86